sensor_id;sensor_type;location;lat;lon;timestamp;P1;durP1;ratioP1;P2;durP2;ratioP2
1136;SDS011;557;48.466;7.950;2022-07-29T00:00:41;13.67;;;12.67;;
1136;SDS011;557;48.466;7.950;2022-07-29T00:03:28;13.60;;;12.73;;
1136;SDS011;557;48.466;7.950;2022-07-29T00:06:13;14.17;;;13.20;;
1136;SDS011;557;48.466;7.950;2022-07-29T00:08:59;13.63;;;12.83;;
1136;SDS011;557;48.466;7.950;2022-07-29T00:11:46;14.33;;;13.33;;
1136;SDS011;557;48.466;7.950;2022-07-29T00:14:33;13.10;;;12.20;;
1136;SDS011;557;48.466;7.950;2022-07-29T00:17:19;14.30;;;13.20;;
1136;SDS011;557;48.466;7.950;2022-07-29T00:20:06;13.23;;;12.40;;
1136;SDS011;557;48.466;7.950;2022-07-29T00:22:52;13.00;;;12.20;;
1136;SDS011;557;48.466;7.950;2022-07-29T00:25:38;13.67;;;12.80;;
1136;SDS011;557;48.466;7.950;2022-07-29T00:28:25;13.10;;;12.20;;
1136;SDS011;557;48.466;7.950;2022-07-29T00:31:12;12.73;;;11.63;;
1136;SDS011;557;48.466;7.950;2022-07-29T00:33:57;13.53;;;12.50;;
1136;SDS011;557;48.466;7.950;2022-07-29T00:36:43;12.70;;;11.90;;
1136;SDS011;557;48.466;7.950;2022-07-29T00:39:27;12.73;;;12.03;;
1136;SDS011;557;48.466;7.950;2022-07-29T00:42:14;13.33;;;12.33;;
1136;SDS011;557;48.466;7.950;2022-07-29T00:45:02;12.63;;;11.80;;
1136;SDS011;557;48.466;7.950;2022-07-29T00:47:48;12.57;;;11.60;;
1136;SDS011;557;48.466;7.950;2022-07-29T00:50:34;12.60;;;11.60;;
1136;SDS011;557;48.466;7.950;2022-07-29T00:53:21;11.90;;;11.20;;
1136;SDS011;557;48.466;7.950;2022-07-29T00:56:07;12.40;;;11.70;;
1136;SDS011;557;48.466;7.950;2022-07-29T00:58:52;13.20;;;12.40;;
1136;SDS011;557;48.466;7.950;2022-07-29T01:01:41;12.57;;;11.67;;
1136;SDS011;557;48.466;7.950;2022-07-29T01:04:26;13.17;;;12.20;;
1136;SDS011;557;48.466;7.950;2022-07-29T01:07:13;13.27;;;12.37;;
1136;SDS011;557;48.466;7.950;2022-07-29T01:09:59;12.37;;;11.50;;
1136;SDS011;557;48.466;7.950;2022-07-29T01:12:47;12.53;;;11.63;;
1136;SDS011;557;48.466;7.950;2022-07-29T01:15:39;12.60;;;11.53;;
1136;SDS011;557;48.466;7.950;2022-07-29T01:18:30;13.87;;;12.87;;
1136;SDS011;557;48.466;7.950;2022-07-29T01:21:35;13.23;;;12.13;;
1136;SDS011;557;48.466;7.950;2022-07-29T01:24:39;12.80;;;11.77;;
1136;SDS011;557;48.466;7.950;2022-07-29T01:27:45;12.47;;;11.60;;
1136;SDS011;557;48.466;7.950;2022-07-29T01:30:39;11.83;;;11.03;;
1136;SDS011;557;48.466;7.950;2022-07-29T01:33:29;12.23;;;11.43;;
1136;SDS011;557;48.466;7.950;2022-07-29T01:36:35;11.33;;;10.53;;
1136;SDS011;557;48.466;7.950;2022-07-29T01:39:26;11.80;;;10.80;;
1136;SDS011;557;48.466;7.950;2022-07-29T01:42:15;11.50;;;10.60;;
1136;SDS011;557;48.466;7.950;2022-07-29T01:45:10;11.77;;;10.77;;
1136;SDS011;557;48.466;7.950;2022-07-29T01:48:02;12.13;;;11.27;;
1136;SDS011;557;48.466;7.950;2022-07-29T01:50:52;11.03;;;10.20;;
1136;SDS011;557;48.466;7.950;2022-07-29T01:53:44;10.80;;;10.03;;
1136;SDS011;557;48.466;7.950;2022-07-29T01:56:35;11.23;;;10.37;;
1136;SDS011;557;48.466;7.950;2022-07-29T01:59:22;11.10;;;9.87;;
1136;SDS011;557;48.466;7.950;2022-07-29T02:02:10;10.83;;;9.87;;
1136;SDS011;557;48.466;7.950;2022-07-29T02:04:59;10.57;;;9.80;;
1136;SDS011;557;48.466;7.950;2022-07-29T02:07:46;10.37;;;9.60;;
1136;SDS011;557;48.466;7.950;2022-07-29T02:10:33;11.63;;;10.80;;
1136;SDS011;557;48.466;7.950;2022-07-29T02:13:20;11.47;;;10.40;;
1136;SDS011;557;48.466;7.950;2022-07-29T02:16:08;10.60;;;9.80;;
1136;SDS011;557;48.466;7.950;2022-07-29T02:18:55;11.30;;;10.50;;
1136;SDS011;557;48.466;7.950;2022-07-29T02:21:44;11.23;;;10.23;;
1136;SDS011;557;48.466;7.950;2022-07-29T02:24:31;10.77;;;9.97;;
1136;SDS011;557;48.466;7.950;2022-07-29T02:27:19;10.83;;;9.83;;
1136;SDS011;557;48.466;7.950;2022-07-29T02:30:06;10.63;;;9.77;;
1136;SDS011;557;48.466;7.950;2022-07-29T02:32:53;11.03;;;10.03;;
1136;SDS011;557;48.466;7.950;2022-07-29T02:35:41;10.37;;;9.47;;
1136;SDS011;557;48.466;7.950;2022-07-29T02:38:30;10.00;;;9.20;;
1136;SDS011;557;48.466;7.950;2022-07-29T02:41:37;9.77;;;8.97;;
1136;SDS011;557;48.466;7.950;2022-07-29T02:44:27;10.17;;;9.20;;
1136;SDS011;557;48.466;7.950;2022-07-29T02:47:14;10.13;;;9.33;;
1136;SDS011;557;48.466;7.950;2022-07-29T02:50:04;9.93;;;9.13;;
1136;SDS011;557;48.466;7.950;2022-07-29T02:52:54;11.40;;;10.30;;
1136;SDS011;557;48.466;7.950;2022-07-29T02:55:45;9.73;;;8.93;;
1136;SDS011;557;48.466;7.950;2022-07-29T02:58:38;9.47;;;8.63;;
1136;SDS011;557;48.466;7.950;2022-07-29T03:01:26;9.70;;;8.90;;
1136;SDS011;557;48.466;7.950;2022-07-29T03:04:16;10.30;;;9.57;;
1136;SDS011;557;48.466;7.950;2022-07-29T03:07:04;10.30;;;9.50;;
1136;SDS011;557;48.466;7.950;2022-07-29T03:09:50;9.23;;;8.53;;
1136;SDS011;557;48.466;7.950;2022-07-29T03:12:38;10.70;;;9.80;;
1136;SDS011;557;48.466;7.950;2022-07-29T03:15:25;9.97;;;9.07;;
1136;SDS011;557;48.466;7.950;2022-07-29T03:18:11;10.37;;;9.43;;
1136;SDS011;557;48.466;7.950;2022-07-29T03:20:58;10.10;;;9.40;;
1136;SDS011;557;48.466;7.950;2022-07-29T03:23:44;10.63;;;8.80;;
1136;SDS011;557;48.466;7.950;2022-07-29T03:26:29;11.00;;;10.00;;
1136;SDS011;557;48.466;7.950;2022-07-29T03:29:16;9.90;;;9.20;;
1136;SDS011;557;48.466;7.950;2022-07-29T03:32:03;9.53;;;8.67;;
1136;SDS011;557;48.466;7.950;2022-07-29T03:34:49;10.13;;;9.23;;
1136;SDS011;557;48.466;7.950;2022-07-29T03:37:36;9.30;;;8.60;;
1136;SDS011;557;48.466;7.950;2022-07-29T03:40:22;9.57;;;8.77;;
1136;SDS011;557;48.466;7.950;2022-07-29T03:43:12;10.77;;;9.37;;
1136;SDS011;557;48.466;7.950;2022-07-29T03:46:02;9.87;;;9.07;;
1136;SDS011;557;48.466;7.950;2022-07-29T03:48:52;9.83;;;9.00;;
1136;SDS011;557;48.466;7.950;2022-07-29T03:51:43;9.60;;;8.80;;
1136;SDS011;557;48.466;7.950;2022-07-29T03:54:29;10.37;;;9.40;;
1136;SDS011;557;48.466;7.950;2022-07-29T03:57:15;9.67;;;8.87;;
1136;SDS011;557;48.466;7.950;2022-07-29T04:00:04;10.37;;;9.47;;
1136;SDS011;557;48.466;7.950;2022-07-29T04:02:52;10.60;;;9.70;;
1136;SDS011;557;48.466;7.950;2022-07-29T04:05:38;9.43;;;8.63;;
1136;SDS011;557;48.466;7.950;2022-07-29T04:08:24;9.00;;;8.30;;
1136;SDS011;557;48.466;7.950;2022-07-29T04:11:09;9.87;;;8.87;;
1136;SDS011;557;48.466;7.950;2022-07-29T04:13:55;8.73;;;7.97;;
1136;SDS011;557;48.466;7.950;2022-07-29T04:16:40;9.60;;;8.63;;
1136;SDS011;557;48.466;7.950;2022-07-29T04:19:27;9.80;;;9.00;;
1136;SDS011;557;48.466;7.950;2022-07-29T04:22:13;10.07;;;9.17;;
1136;SDS011;557;48.466;7.950;2022-07-29T04:24:59;9.40;;;8.60;;
1136;SDS011;557;48.466;7.950;2022-07-29T04:27:44;9.67;;;8.87;;
1136;SDS011;557;48.466;7.950;2022-07-29T04:30:38;9.73;;;8.93;;
1136;SDS011;557;48.466;7.950;2022-07-29T04:33:24;10.00;;;9.10;;
1136;SDS011;557;48.466;7.950;2022-07-29T04:36:10;9.50;;;8.80;;
1136;SDS011;557;48.466;7.950;2022-07-29T04:38:56;10.17;;;9.30;;
1136;SDS011;557;48.466;7.950;2022-07-29T04:41:41;9.27;;;8.53;;
1136;SDS011;557;48.466;7.950;2022-07-29T04:44:27;9.30;;;8.57;;
1136;SDS011;557;48.466;7.950;2022-07-29T04:47:14;9.90;;;8.93;;
1136;SDS011;557;48.466;7.950;2022-07-29T04:50:00;9.60;;;8.70;;
1136;SDS011;557;48.466;7.950;2022-07-29T04:52:46;10.03;;;9.13;;
1136;SDS011;557;48.466;7.950;2022-07-29T04:55:31;9.90;;;8.97;;
1136;SDS011;557;48.466;7.950;2022-07-29T04:58:17;10.43;;;9.53;;
1136;SDS011;557;48.466;7.950;2022-07-29T05:01:03;9.63;;;8.83;;
1136;SDS011;557;48.466;7.950;2022-07-29T05:03:50;9.00;;;8.27;;
1136;SDS011;557;48.466;7.950;2022-07-29T05:06:36;11.10;;;9.10;;
1136;SDS011;557;48.466;7.950;2022-07-29T05:09:22;10.80;;;9.30;;
1136;SDS011;557;48.466;7.950;2022-07-29T05:12:08;10.37;;;9.50;;
1136;SDS011;557;48.466;7.950;2022-07-29T05:14:54;9.77;;;8.87;;
1136;SDS011;557;48.466;7.950;2022-07-29T05:17:40;9.67;;;8.73;;
1136;SDS011;557;48.466;7.950;2022-07-29T05:20:27;11.47;;;9.63;;
1136;SDS011;557;48.466;7.950;2022-07-29T05:23:13;9.70;;;8.77;;
1136;SDS011;557;48.466;7.950;2022-07-29T05:25:58;9.67;;;8.67;;
1136;SDS011;557;48.466;7.950;2022-07-29T05:28:44;10.47;;;9.60;;
1136;SDS011;557;48.466;7.950;2022-07-29T05:31:30;10.10;;;9.20;;
1136;SDS011;557;48.466;7.950;2022-07-29T05:34:17;10.37;;;9.37;;
1136;SDS011;557;48.466;7.950;2022-07-29T05:37:04;10.30;;;9.33;;
1136;SDS011;557;48.466;7.950;2022-07-29T05:39:50;10.87;;;9.60;;
1136;SDS011;557;48.466;7.950;2022-07-29T05:42:35;10.13;;;9.23;;
1136;SDS011;557;48.466;7.950;2022-07-29T05:45:21;9.97;;;8.97;;
1136;SDS011;557;48.466;7.950;2022-07-29T05:48:07;10.00;;;9.07;;
1136;SDS011;557;48.466;7.950;2022-07-29T05:50:52;9.33;;;8.53;;
1136;SDS011;557;48.466;7.950;2022-07-29T05:53:40;9.93;;;9.03;;
1136;SDS011;557;48.466;7.950;2022-07-29T05:56:26;10.43;;;9.33;;
1136;SDS011;557;48.466;7.950;2022-07-29T05:59:12;9.80;;;9.00;;
1136;SDS011;557;48.466;7.950;2022-07-29T06:01:58;8.83;;;8.13;;
1136;SDS011;557;48.466;7.950;2022-07-29T06:04:43;9.57;;;8.67;;
1136;SDS011;557;48.466;7.950;2022-07-29T06:07:29;10.70;;;9.60;;
1136;SDS011;557;48.466;7.950;2022-07-29T06:10:17;9.83;;;9.03;;
1136;SDS011;557;48.466;7.950;2022-07-29T06:13:04;10.33;;;9.40;;
1136;SDS011;557;48.466;7.950;2022-07-29T06:15:49;10.63;;;9.50;;
1136;SDS011;557;48.466;7.950;2022-07-29T06:18:35;9.67;;;8.97;;
1136;SDS011;557;48.466;7.950;2022-07-29T06:21:21;10.27;;;9.20;;
1136;SDS011;557;48.466;7.950;2022-07-29T06:24:07;11.57;;;10.67;;
1136;SDS011;557;48.466;7.950;2022-07-29T06:26:54;10.87;;;9.97;;
1136;SDS011;557;48.466;7.950;2022-07-29T06:29:40;10.47;;;9.57;;
1136;SDS011;557;48.466;7.950;2022-07-29T06:32:25;10.97;;;9.87;;
1136;SDS011;557;48.466;7.950;2022-07-29T06:35:11;9.73;;;9.03;;
1136;SDS011;557;48.466;7.950;2022-07-29T06:37:56;10.00;;;9.30;;
1136;SDS011;557;48.466;7.950;2022-07-29T06:40:42;11.17;;;10.17;;
1136;SDS011;557;48.466;7.950;2022-07-29T06:43:48;11.00;;;9.90;;
1136;SDS011;557;48.466;7.950;2022-07-29T06:46:35;10.03;;;9.33;;
1136;SDS011;557;48.466;7.950;2022-07-29T06:49:21;10.80;;;10.00;;
1136;SDS011;557;48.466;7.950;2022-07-29T06:52:07;10.83;;;10.03;;
1136;SDS011;557;48.466;7.950;2022-07-29T06:54:53;11.63;;;10.63;;
1136;SDS011;557;48.466;7.950;2022-07-29T06:57:39;11.77;;;10.83;;
1136;SDS011;557;48.466;7.950;2022-07-29T07:00:26;10.87;;;10.17;;
1136;SDS011;557;48.466;7.950;2022-07-29T07:03:11;11.07;;;10.20;;
1136;SDS011;557;48.466;7.950;2022-07-29T07:05:57;10.73;;;10.03;;
1136;SDS011;557;48.466;7.950;2022-07-29T07:08:43;11.43;;;10.53;;
1136;SDS011;557;48.466;7.950;2022-07-29T07:11:28;12.33;;;11.40;;
1136;SDS011;557;48.466;7.950;2022-07-29T07:14:14;11.87;;;11.07;;
1136;SDS011;557;48.466;7.950;2022-07-29T07:17:01;12.90;;;12.00;;
1136;SDS011;557;48.466;7.950;2022-07-29T07:19:47;12.27;;;11.37;;
1136;SDS011;557;48.466;7.950;2022-07-29T07:22:33;13.43;;;12.30;;
1136;SDS011;557;48.466;7.950;2022-07-29T07:25:19;12.30;;;11.60;;
1136;SDS011;557;48.466;7.950;2022-07-29T07:28:05;13.30;;;12.30;;
1136;SDS011;557;48.466;7.950;2022-07-29T07:30:51;12.30;;;11.47;;
1136;SDS011;557;48.466;7.950;2022-07-29T07:33:38;13.30;;;12.47;;
1136;SDS011;557;48.466;7.950;2022-07-29T07:36:24;13.13;;;12.30;;
1136;SDS011;557;48.466;7.950;2022-07-29T07:39:10;13.63;;;12.53;;
1136;SDS011;557;48.466;7.950;2022-07-29T07:42:02;14.07;;;13.27;;
1136;SDS011;557;48.466;7.950;2022-07-29T07:44:48;13.27;;;12.47;;
1136;SDS011;557;48.466;7.950;2022-07-29T07:47:34;12.90;;;12.10;;
1136;SDS011;557;48.466;7.950;2022-07-29T07:50:21;13.43;;;12.63;;
1136;SDS011;557;48.466;7.950;2022-07-29T07:53:07;14.70;;;13.40;;
1136;SDS011;557;48.466;7.950;2022-07-29T07:55:52;13.50;;;12.60;;
1136;SDS011;557;48.466;7.950;2022-07-29T07:58:38;14.50;;;13.50;;
1136;SDS011;557;48.466;7.950;2022-07-29T08:01:24;14.33;;;13.33;;
1136;SDS011;557;48.466;7.950;2022-07-29T08:04:09;13.90;;;13.10;;
1136;SDS011;557;48.466;7.950;2022-07-29T08:06:57;14.73;;;13.77;;
1136;SDS011;557;48.466;7.950;2022-07-29T08:09:43;14.00;;;13.20;;
1136;SDS011;557;48.466;7.950;2022-07-29T08:12:29;14.93;;;13.73;;
1136;SDS011;557;48.466;7.950;2022-07-29T08:15:15;15.13;;;13.70;;
1136;SDS011;557;48.466;7.950;2022-07-29T08:18:00;14.20;;;13.40;;
1136;SDS011;557;48.466;7.950;2022-07-29T08:20:46;15.10;;;14.20;;
1136;SDS011;557;48.466;7.950;2022-07-29T08:23:33;14.67;;;13.87;;
1136;SDS011;557;48.466;7.950;2022-07-29T08:26:22;15.50;;;14.40;;
1136;SDS011;557;48.466;7.950;2022-07-29T08:29:08;15.52;;;14.55;;
1136;SDS011;557;48.466;7.950;2022-07-29T08:31:54;15.00;;;14.00;;
1136;SDS011;557;48.466;7.950;2022-07-29T08:34:39;15.90;;;15.00;;
1136;SDS011;557;48.466;7.950;2022-07-29T08:37:25;16.60;;;15.30;;
1136;SDS011;557;48.466;7.950;2022-07-29T08:40:12;17.23;;;15.53;;
1136;SDS011;557;48.466;7.950;2022-07-29T08:42:59;16.30;;;15.23;;
1136;SDS011;557;48.466;7.950;2022-07-29T08:45:49;17.80;;;16.50;;
1136;SDS011;557;48.466;7.950;2022-07-29T08:48:36;17.10;;;16.08;;
1136;SDS011;557;48.466;7.950;2022-07-29T08:51:23;17.75;;;16.65;;
1136;SDS011;557;48.466;7.950;2022-07-29T08:54:11;17.97;;;16.87;;
1136;SDS011;557;48.466;7.950;2022-07-29T08:57:03;17.90;;;16.73;;
1136;SDS011;557;48.466;7.950;2022-07-29T08:59:50;17.52;;;16.33;;
1136;SDS011;557;48.466;7.950;2022-07-29T09:02:39;18.63;;;17.27;;
1136;SDS011;557;48.466;7.950;2022-07-29T09:05:27;17.88;;;16.67;;
1136;SDS011;557;48.466;7.950;2022-07-29T09:08:13;17.92;;;16.83;;
1136;SDS011;557;48.466;7.950;2022-07-29T09:11:00;18.67;;;17.23;;
1136;SDS011;557;48.466;7.950;2022-07-29T09:13:48;18.40;;;17.20;;
1136;SDS011;557;48.466;7.950;2022-07-29T09:16:43;17.90;;;16.90;;
1136;SDS011;557;48.466;7.950;2022-07-29T09:19:34;17.77;;;16.57;;
1136;SDS011;557;48.466;7.950;2022-07-29T09:22:28;16.63;;;15.60;;
1136;SDS011;557;48.466;7.950;2022-07-29T09:25:15;17.30;;;16.20;;
1136;SDS011;557;48.466;7.950;2022-07-29T09:28:17;17.67;;;16.50;;
1136;SDS011;557;48.466;7.950;2022-07-29T09:31:04;16.37;;;15.47;;
1136;SDS011;557;48.466;7.950;2022-07-29T09:33:52;16.27;;;15.07;;
1136;SDS011;557;48.466;7.950;2022-07-29T09:36:40;16.97;;;16.07;;
1136;SDS011;557;48.466;7.950;2022-07-29T09:39:27;17.27;;;16.27;;
1136;SDS011;557;48.466;7.950;2022-07-29T09:42:14;17.33;;;16.33;;
1136;SDS011;557;48.466;7.950;2022-07-29T09:45:13;17.23;;;16.23;;
1136;SDS011;557;48.466;7.950;2022-07-29T09:48:16;18.38;;;17.27;;
1136;SDS011;557;48.466;7.950;2022-07-29T09:51:03;18.40;;;17.20;;
1136;SDS011;557;48.466;7.950;2022-07-29T09:53:51;17.95;;;16.88;;
1136;SDS011;557;48.466;7.950;2022-07-29T09:56:40;18.88;;;17.67;;
1136;SDS011;557;48.466;7.950;2022-07-29T09:59:26;18.35;;;17.35;;
1136;SDS011;557;48.466;7.950;2022-07-29T10:02:12;18.88;;;17.80;;
1136;SDS011;557;48.466;7.950;2022-07-29T10:05:00;18.52;;;17.33;;
1136;SDS011;557;48.466;7.950;2022-07-29T10:07:47;18.95;;;17.63;;
1136;SDS011;557;48.466;7.950;2022-07-29T10:10:33;19.70;;;18.52;;
1136;SDS011;557;48.466;7.950;2022-07-29T10:13:20;19.38;;;18.23;;
1136;SDS011;557;48.466;7.950;2022-07-29T10:16:06;20.17;;;18.98;;
1136;SDS011;557;48.466;7.950;2022-07-29T10:18:53;19.70;;;18.50;;
1136;SDS011;557;48.466;7.950;2022-07-29T10:21:40;20.52;;;19.33;;
1136;SDS011;557;48.466;7.950;2022-07-29T10:24:29;19.77;;;18.52;;
1136;SDS011;557;48.466;7.950;2022-07-29T10:27:16;19.55;;;18.15;;
1136;SDS011;557;48.466;7.950;2022-07-29T10:30:01;18.98;;;17.85;;
1136;SDS011;557;48.466;7.950;2022-07-29T10:32:51;18.60;;;17.48;;
1136;SDS011;557;48.466;7.950;2022-07-29T10:36:00;19.08;;;17.88;;
1136;SDS011;557;48.466;7.950;2022-07-29T10:39:05;18.63;;;17.52;;
1136;SDS011;557;48.466;7.950;2022-07-29T10:42:07;19.63;;;18.40;;
1136;SDS011;557;48.466;7.950;2022-07-29T10:45:02;19.73;;;18.52;;
1136;SDS011;557;48.466;7.950;2022-07-29T10:47:49;20.50;;;19.20;;
1136;SDS011;557;48.466;7.950;2022-07-29T10:50:51;19.58;;;18.38;;
1136;SDS011;557;48.466;7.950;2022-07-29T10:53:47;20.40;;;19.20;;
1136;SDS011;557;48.466;7.950;2022-07-29T10:56:36;20.40;;;19.20;;
1136;SDS011;557;48.466;7.950;2022-07-29T10:59:24;19.80;;;18.75;;
1136;SDS011;557;48.466;7.950;2022-07-29T11:05:28;21.25;;;20.05;;
1136;SDS011;557;48.466;7.950;2022-07-29T11:08:22;20.42;;;19.20;;
1136;SDS011;557;48.466;7.950;2022-07-29T11:20:49;20.50;;;19.20;;
1136;SDS011;557;48.466;7.950;2022-07-29T11:23:37;21.50;;;20.30;;
1136;SDS011;557;48.466;7.950;2022-07-29T11:26:26;20.58;;;19.48;;
1136;SDS011;557;48.466;7.950;2022-07-29T11:29:18;21.13;;;19.92;;
1136;SDS011;557;48.466;7.950;2022-07-29T11:32:09;20.08;;;18.92;;
1136;SDS011;557;48.466;7.950;2022-07-29T11:35:13;20.58;;;19.38;;
1136;SDS011;557;48.466;7.950;2022-07-29T11:41:21;20.35;;;19.15;;
1136;SDS011;557;48.466;7.950;2022-07-29T11:44:08;20.35;;;19.25;;
1136;SDS011;557;48.466;7.950;2022-07-29T11:46:55;20.48;;;19.27;;
1136;SDS011;557;48.466;7.950;2022-07-29T11:49:41;20.27;;;19.17;;
1136;SDS011;557;48.466;7.950;2022-07-29T11:52:32;20.23;;;19.13;;
1136;SDS011;557;48.466;7.950;2022-07-29T11:55:21;21.17;;;19.98;;
1136;SDS011;557;48.466;7.950;2022-07-29T11:58:09;20.40;;;19.15;;
1136;SDS011;557;48.466;7.950;2022-07-29T12:00:56;20.25;;;19.05;;
1136;SDS011;557;48.466;7.950;2022-07-29T12:03:43;18.63;;;17.63;;
1136;SDS011;557;48.466;7.950;2022-07-29T12:06:29;20.80;;;19.45;;
1136;SDS011;557;48.466;7.950;2022-07-29T12:09:15;20.15;;;18.92;;
1136;SDS011;557;48.466;7.950;2022-07-29T12:12:01;19.88;;;18.77;;
1136;SDS011;557;48.466;7.950;2022-07-29T12:14:47;19.58;;;18.48;;
1136;SDS011;557;48.466;7.950;2022-07-29T12:17:33;19.70;;;18.50;;
1136;SDS011;557;48.466;7.950;2022-07-29T12:20:25;18.83;;;17.83;;
1136;SDS011;557;48.466;7.950;2022-07-29T12:23:13;18.80;;;17.70;;
1136;SDS011;557;48.466;7.950;2022-07-29T12:26:00;19.25;;;17.75;;
1136;SDS011;557;48.466;7.950;2022-07-29T12:28:48;18.77;;;17.70;;
1136;SDS011;557;48.466;7.950;2022-07-29T12:31:34;19.20;;;18.08;;
1136;SDS011;557;48.466;7.950;2022-07-29T12:34:20;19.48;;;18.27;;
1136;SDS011;557;48.466;7.950;2022-07-29T12:37:09;20.35;;;19.20;;
1136;SDS011;557;48.466;7.950;2022-07-29T12:39:56;20.15;;;18.67;;
1136;SDS011;557;48.466;7.950;2022-07-29T12:42:42;20.17;;;18.83;;
1136;SDS011;557;48.466;7.950;2022-07-29T12:45:53;19.58;;;18.58;;
1136;SDS011;557;48.466;7.950;2022-07-29T12:48:41;20.52;;;19.23;;
1136;SDS011;557;48.466;7.950;2022-07-29T12:51:28;18.70;;;17.60;;
1136;SDS011;557;48.466;7.950;2022-07-29T12:54:16;19.15;;;18.15;;
1136;SDS011;557;48.466;7.950;2022-07-29T12:57:02;20.73;;;19.02;;
1136;SDS011;557;48.466;7.950;2022-07-29T12:59:58;19.20;;;18.17;;
1136;SDS011;557;48.466;7.950;2022-07-29T13:02:46;19.23;;;18.05;;
1136;SDS011;557;48.466;7.950;2022-07-29T13:05:41;19.13;;;18.02;;
1136;SDS011;557;48.466;7.950;2022-07-29T13:08:29;19.38;;;18.20;;
1136;SDS011;557;48.466;7.950;2022-07-29T13:11:28;18.65;;;17.65;;
1136;SDS011;557;48.466;7.950;2022-07-29T13:14:28;19.80;;;18.60;;
1136;SDS011;557;48.466;7.950;2022-07-29T13:17:16;19.08;;;18.08;;
1136;SDS011;557;48.466;7.950;2022-07-29T13:20:05;19.63;;;18.38;;
1136;SDS011;557;48.466;7.950;2022-07-29T13:22:56;18.90;;;17.80;;
1136;SDS011;557;48.466;7.950;2022-07-29T13:25:43;19.20;;;17.80;;
1136;SDS011;557;48.466;7.950;2022-07-29T13:28:31;18.00;;;17.10;;
1136;SDS011;557;48.466;7.950;2022-07-29T13:31:16;19.95;;;18.48;;
1136;SDS011;557;48.466;7.950;2022-07-29T13:34:02;18.88;;;17.77;;
1136;SDS011;557;48.466;7.950;2022-07-29T13:36:48;19.02;;;17.85;;
1136;SDS011;557;48.466;7.950;2022-07-29T13:39:34;19.20;;;18.10;;
1136;SDS011;557;48.466;7.950;2022-07-29T13:42:21;19.25;;;17.95;;
1136;SDS011;557;48.466;7.950;2022-07-29T13:45:08;19.23;;;18.10;;
1136;SDS011;557;48.466;7.950;2022-07-29T13:47:55;19.20;;;18.00;;
1136;SDS011;557;48.466;7.950;2022-07-29T13:50:41;18.60;;;17.23;;
1136;SDS011;557;48.466;7.950;2022-07-29T13:53:26;19.48;;;18.35;;
1136;SDS011;557;48.466;7.950;2022-07-29T13:56:12;18.00;;;17.10;;
1136;SDS011;557;48.466;7.950;2022-07-29T13:58:58;17.98;;;16.88;;
1136;SDS011;557;48.466;7.950;2022-07-29T14:01:45;18.42;;;17.30;;
1136;SDS011;557;48.466;7.950;2022-07-29T14:04:31;17.92;;;17.02;;
1136;SDS011;557;48.466;7.950;2022-07-29T14:07:17;18.35;;;17.35;;
1136;SDS011;557;48.466;7.950;2022-07-29T14:10:03;18.10;;;17.10;;
1136;SDS011;557;48.466;7.950;2022-07-29T14:12:49;18.02;;;17.13;;
1136;SDS011;557;48.466;7.950;2022-07-29T14:15:35;19.00;;;17.70;;
1136;SDS011;557;48.466;7.950;2022-07-29T14:18:22;18.23;;;17.17;;
1136;SDS011;557;48.466;7.950;2022-07-29T14:21:08;18.90;;;17.80;;
1136;SDS011;557;48.466;7.950;2022-07-29T14:23:54;19.05;;;17.95;;
1136;SDS011;557;48.466;7.950;2022-07-29T14:26:39;19.05;;;17.95;;
1136;SDS011;557;48.466;7.950;2022-07-29T14:29:25;17.77;;;16.77;;
1136;SDS011;557;48.466;7.950;2022-07-29T14:32:11;17.95;;;17.05;;
1136;SDS011;557;48.466;7.950;2022-07-29T14:34:59;18.27;;;17.17;;
1136;SDS011;557;48.466;7.950;2022-07-29T14:37:45;18.30;;;17.10;;
1136;SDS011;557;48.466;7.950;2022-07-29T14:40:31;17.90;;;17.00;;
1136;SDS011;557;48.466;7.950;2022-07-29T14:43:17;17.73;;;16.67;;
1136;SDS011;557;48.466;7.950;2022-07-29T14:46:02;17.92;;;16.67;;
1136;SDS011;557;48.466;7.950;2022-07-29T14:48:48;18.77;;;17.67;;
1136;SDS011;557;48.466;7.950;2022-07-29T14:51:36;18.58;;;17.50;;
1136;SDS011;557;48.466;7.950;2022-07-29T14:54:21;17.77;;;16.65;;
1136;SDS011;557;48.466;7.950;2022-07-29T14:57:07;17.73;;;16.80;;
1136;SDS011;557;48.466;7.950;2022-07-29T14:59:52;17.33;;;16.33;;
1136;SDS011;557;48.466;7.950;2022-07-29T15:02:38;18.25;;;17.20;;
1136;SDS011;557;48.466;7.950;2022-07-29T15:05:24;18.13;;;17.13;;
1136;SDS011;557;48.466;7.950;2022-07-29T15:08:11;18.52;;;17.33;;
1136;SDS011;557;48.466;7.950;2022-07-29T15:10:57;18.17;;;17.17;;
1136;SDS011;557;48.466;7.950;2022-07-29T15:13:44;17.65;;;16.75;;
1136;SDS011;557;48.466;7.950;2022-07-29T15:16:30;18.40;;;17.40;;
1136;SDS011;557;48.466;7.950;2022-07-29T15:19:15;18.42;;;17.33;;
1136;SDS011;557;48.466;7.950;2022-07-29T15:22:01;17.67;;;16.67;;
1136;SDS011;557;48.466;7.950;2022-07-29T15:24:50;18.83;;;17.83;;
1136;SDS011;557;48.466;7.950;2022-07-29T15:27:35;18.20;;;17.20;;
1136;SDS011;557;48.466;7.950;2022-07-29T15:30:21;18.83;;;17.63;;
1136;SDS011;557;48.466;7.950;2022-07-29T15:33:07;18.40;;;17.40;;
1136;SDS011;557;48.466;7.950;2022-07-29T15:35:55;18.33;;;17.33;;
1136;SDS011;557;48.466;7.950;2022-07-29T15:38:41;18.00;;;17.10;;
1136;SDS011;557;48.466;7.950;2022-07-29T15:41:29;18.63;;;17.52;;
1136;SDS011;557;48.466;7.950;2022-07-29T15:44:15;18.25;;;17.25;;
1136;SDS011;557;48.466;7.950;2022-07-29T15:47:01;18.40;;;17.40;;
1136;SDS011;557;48.466;7.950;2022-07-29T15:49:49;18.60;;;17.60;;
1136;SDS011;557;48.466;7.950;2022-07-29T15:52:35;18.65;;;17.58;;
1136;SDS011;557;48.466;7.950;2022-07-29T15:55:21;18.40;;;17.10;;
1136;SDS011;557;48.466;7.950;2022-07-29T15:58:08;19.08;;;17.95;;
1136;SDS011;557;48.466;7.950;2022-07-29T16:00:54;18.20;;;17.00;;
1136;SDS011;557;48.466;7.950;2022-07-29T16:03:40;17.65;;;16.75;;
1136;SDS011;557;48.466;7.950;2022-07-29T16:06:26;18.90;;;17.63;;
1136;SDS011;557;48.466;7.950;2022-07-29T16:09:11;18.60;;;17.50;;
1136;SDS011;557;48.466;7.950;2022-07-29T16:11:57;18.10;;;16.90;;
1136;SDS011;557;48.466;7.950;2022-07-29T16:14:45;19.10;;;17.75;;
1136;SDS011;557;48.466;7.950;2022-07-29T16:17:32;18.33;;;17.20;;
1136;SDS011;557;48.466;7.950;2022-07-29T16:20:17;18.45;;;17.45;;
1136;SDS011;557;48.466;7.950;2022-07-29T16:23:03;17.98;;;16.90;;
1136;SDS011;557;48.466;7.950;2022-07-29T16:25:50;18.27;;;17.27;;
1136;SDS011;557;48.466;7.950;2022-07-29T16:28:36;19.20;;;18.00;;
1136;SDS011;557;48.466;7.950;2022-07-29T16:31:23;18.35;;;17.25;;
1136;SDS011;557;48.466;7.950;2022-07-29T16:34:09;18.45;;;17.08;;
1136;SDS011;557;48.466;7.950;2022-07-29T16:36:55;18.10;;;17.10;;
1136;SDS011;557;48.466;7.950;2022-07-29T16:39:41;17.95;;;16.88;;
1136;SDS011;557;48.466;7.950;2022-07-29T16:42:27;18.05;;;17.05;;
1136;SDS011;557;48.466;7.950;2022-07-29T16:45:12;17.95;;;16.95;;
1136;SDS011;557;48.466;7.950;2022-07-29T16:48:00;17.38;;;16.42;;
1136;SDS011;557;48.466;7.950;2022-07-29T16:50:46;17.75;;;16.75;;
1136;SDS011;557;48.466;7.950;2022-07-29T16:53:32;17.85;;;16.85;;
1136;SDS011;557;48.466;7.950;2022-07-29T16:56:18;18.20;;;17.00;;
1136;SDS011;557;48.466;7.950;2022-07-29T16:59:04;17.30;;;16.20;;
1136;SDS011;557;48.466;7.950;2022-07-29T17:01:49;17.45;;;16.50;;
1136;SDS011;557;48.466;7.950;2022-07-29T17:04:36;17.33;;;16.42;;
1136;SDS011;557;48.466;7.950;2022-07-29T17:07:22;17.52;;;16.52;;
1136;SDS011;557;48.466;7.950;2022-07-29T17:10:08;17.83;;;16.73;;
1136;SDS011;557;48.466;7.950;2022-07-29T17:12:54;17.70;;;16.60;;
1136;SDS011;557;48.466;7.950;2022-07-29T17:15:40;17.52;;;16.63;;
1136;SDS011;557;48.466;7.950;2022-07-29T17:18:26;17.88;;;16.67;;
1136;SDS011;557;48.466;7.950;2022-07-29T17:21:14;17.20;;;16.27;;
1136;SDS011;557;48.466;7.950;2022-07-29T17:24:00;17.55;;;16.55;;
1136;SDS011;557;48.466;7.950;2022-07-29T17:26:46;17.42;;;16.38;;
1136;SDS011;557;48.466;7.950;2022-07-29T17:29:32;16.80;;;15.90;;